createdAt,value
2018-03-11T00:00:50.277Z,23.80
2018-03-11T00:01:50.283Z,23.10
2018-03-11T00:02:50.304Z,25.30
2018-03-11T00:03:50.332Z,25.30
2018-03-11T00:04:50.342Z,25.60
2018-03-11T00:05:50.370Z,24.50
2018-03-11T00:06:50.380Z,25.30
2018-03-11T00:07:50.444Z,25.30
2018-03-11T00:08:50.414Z,24.90
2018-03-11T00:09:50.426Z,26.10
2018-03-11T00:10:50.442Z,24.10
2018-03-11T00:11:50.516Z,26.20
2018-03-11T00:12:50.480Z,26.20
2018-03-11T00:13:50.507Z,25.60
2018-03-11T00:14:50.528Z,24.60
2018-03-11T00:15:50.546Z,25.70
2018-03-11T00:16:50.554Z,25.90
2018-03-11T00:17:50.584Z,25.70
2018-03-11T00:18:50.580Z,25.30
2018-03-11T00:19:50.630Z,27.10
2018-03-11T00:20:50.651Z,28.20
2018-03-11T00:21:50.658Z,27.90
2018-03-11T00:22:50.672Z,29.20
2018-03-11T00:23:50.684Z,29.30
2018-03-11T00:24:50.693Z,28.40
2018-03-11T00:25:50.718Z,28.60
2018-03-11T00:26:50.747Z,29.20
2018-03-11T00:27:50.750Z,28.70
2018-03-11T00:28:50.764Z,28.30
2018-03-11T00:29:50.778Z,27.20
2018-03-11T00:30:50.794Z,27.20
2018-03-11T00:31:50.820Z,28.70
2018-03-11T00:32:50.839Z,27.90
2018-03-11T00:33:50.854Z,28.90
2018-03-11T00:34:50.875Z,30.20
2018-03-11T00:35:50.897Z,28.50
2018-03-11T00:36:50.907Z,28.60
2018-03-11T00:37:50.918Z,28.30
2018-03-11T00:38:50.941Z,28.60
2018-03-11T00:39:50.962Z,29.30
2018-03-11T00:40:51.028Z,29.70
2018-03-11T00:41:51.031Z,28.50
2018-03-11T00:42:51.026Z,27.20
2018-03-11T00:43:51.040Z,28.20
2018-03-11T00:44:51.046Z,27.30
2018-03-11T00:45:51.070Z,27.20
2018-03-11T00:46:51.135Z,27.10
2018-03-11T00:47:51.125Z,28.00
2018-03-11T00:48:51.121Z,28.30
2018-03-11T00:49:51.137Z,26.70
2018-03-11T00:50:51.161Z,26.50
2018-03-11T00:51:51.183Z,26.80
2018-03-11T00:52:51.216Z,25.90
2018-03-11T00:53:51.215Z,27.50
2018-03-11T00:54:51.232Z,27.70
2018-03-11T00:55:51.257Z,26.70
2018-03-11T00:56:51.311Z,26.00
2018-03-11T00:57:51.275Z,25.70
2018-03-11T00:58:51.363Z,26.60
2018-03-11T00:59:51.376Z,25.00
2018-03-11T01:00:51.341Z,25.40
2018-03-11T01:01:51.367Z,26.40
2018-03-11T01:02:51.380Z,26.90
2018-03-11T01:03:51.397Z,26.80
2018-03-11T01:04:51.428Z,27.50
2018-03-11T01:05:51.428Z,27.10
2018-03-11T01:06:51.441Z,27.10
2018-03-11T01:07:51.452Z,28.90
2018-03-11T01:08:51.482Z,27.40
2018-03-11T01:09:51.490Z,27.80
2018-03-11T01:10:51.565Z,27.70
2018-03-11T01:11:51.544Z,27.00
2018-03-11T01:12:51.540Z,26.30
2018-03-11T01:13:51.577Z,27.10
2018-03-11T01:14:51.580Z,27.50
2018-03-11T01:15:51.600Z,26.60
2018-03-11T01:16:51.622Z,27.80
2018-03-11T01:17:51.625Z,26.30
2018-03-11T01:18:51.653Z,25.30
2018-03-11T01:19:51.696Z,25.90
2018-03-11T01:20:51.688Z,26.60
2018-03-11T01:21:51.698Z,25.10
2018-03-11T01:22:51.715Z,26.50
2018-03-11T01:23:51.740Z,25.50
2018-03-11T01:24:51.761Z,27.70
2018-03-11T01:25:51.771Z,26.30
2018-03-11T01:26:51.811Z,26.30
2018-03-11T01:27:51.813Z,26.60
2018-03-11T01:28:51.841Z,27.70
2018-03-11T01:29:51.867Z,26.80
2018-03-11T01:30:51.878Z,26.90
2018-03-11T01:31:51.901Z,27.60
2018-03-11T01:32:51.925Z,30.10
2018-03-11T01:33:51.921Z,30.50
2018-03-11T01:34:51.968Z,29.80
2018-03-11T01:35:51.947Z,30.10
2018-03-11T01:36:51.973Z,33.00
2018-03-11T01:37:51.985Z,33.00
2018-03-11T01:38:52.003Z,32.60
2018-03-11T01:39:52.016Z,32.00
2018-03-11T01:40:52.048Z,31.40
2018-03-11T01:41:52.063Z,32.30
2018-03-11T01:42:52.074Z,32.60
2018-03-11T01:43:52.096Z,32.50
2018-03-11T01:44:52.110Z,31.90
2018-03-11T01:45:52.123Z,30.90
2018-03-11T01:46:52.183Z,31.00
2018-03-11T01:47:52.171Z,31.90
2018-03-11T01:48:52.192Z,35.10
2018-03-11T01:49:52.220Z,32.80
2018-03-11T01:50:52.264Z,32.40
2018-03-11T01:51:52.230Z,34.50
2018-03-11T01:52:52.250Z,32.90
2018-03-11T01:53:52.281Z,34.80
2018-03-11T01:54:52.313Z,31.60
2018-03-11T01:55:52.301Z,31.80
2018-03-11T01:56:52.325Z,31.90
2018-03-11T01:57:52.337Z,31.50
2018-03-11T01:58:52.376Z,30.50
2018-03-11T01:59:52.384Z,30.60
2018-03-11T02:00:52.410Z,32.00
2018-03-11T02:01:52.405Z,30.30
2018-03-11T02:02:52.427Z,31.20
2018-03-11T02:03:52.458Z,30.70
2018-03-11T02:04:52.459Z,30.70
2018-03-11T02:05:52.480Z,31.80
2018-03-11T02:06:52.517Z,32.30
2018-03-11T02:07:52.515Z,31.00
2018-03-11T02:08:52.539Z,29.30
2018-03-11T02:09:52.553Z,31.70
2018-03-11T02:10:52.565Z,29.70
2018-03-11T02:11:52.583Z,29.60
2018-03-11T02:12:52.607Z,31.00
2018-03-11T02:13:52.622Z,29.60
2018-03-11T02:14:52.635Z,31.90
2018-03-11T02:15:52.671Z,29.90
2018-03-11T02:16:52.669Z,28.90
2018-03-11T02:17:52.680Z,31.50
2018-03-11T02:18:52.730Z,31.30
2018-03-11T02:19:52.727Z,30.80
2018-03-11T02:20:52.763Z,30.70
2018-03-11T02:21:52.754Z,31.70
2018-03-11T02:22:52.768Z,31.40
2018-03-11T02:23:52.802Z,33.80
2018-03-11T02:24:52.805Z,31.00
2018-03-11T02:25:52.820Z,31.90
2018-03-11T02:26:52.839Z,30.60
2018-03-11T02:27:52.861Z,31.80
2018-03-11T02:28:52.880Z,33.70
2018-03-11T02:29:52.921Z,33.70
2018-03-11T02:30:52.928Z,32.70
2018-03-11T02:31:52.936Z,32.30
2018-03-11T02:32:52.953Z,32.00
2018-03-11T02:33:52.976Z,36.50
2018-03-11T02:34:52.987Z,33.00
2018-03-11T02:35:53.014Z,31.50
2018-03-11T02:36:53.019Z,33.80
2018-03-11T02:37:53.047Z,31.80
2018-03-11T02:38:53.059Z,35.70
2018-03-11T02:39:53.081Z,33.40
2018-03-11T02:40:53.089Z,32.90
2018-03-11T02:41:53.114Z,32.80
2018-03-11T02:42:53.127Z,32.00
2018-03-11T02:43:53.145Z,32.70
2018-03-11T02:44:53.156Z,30.40
2018-03-11T02:45:53.213Z,32.10
2018-03-11T02:46:53.198Z,30.80
2018-03-11T02:47:53.213Z,31.30
2018-03-11T02:48:53.229Z,29.40
2018-03-11T02:49:53.269Z,32.70
2018-03-11T02:50:53.268Z,31.40
2018-03-11T02:51:53.294Z,31.30
2018-03-11T02:52:53.311Z,35.20
2018-03-11T02:53:53.316Z,33.20
2018-03-11T02:54:53.342Z,32.40
2018-03-11T02:55:53.356Z,34.20
2018-03-11T02:56:53.374Z,33.50
2018-03-11T02:57:53.391Z,34.40
2018-03-11T02:58:53.408Z,33.90
2018-03-11T02:59:53.422Z,34.70
2018-03-11T03:00:53.441Z,34.00
2018-03-11T03:01:53.460Z,33.60
2018-03-11T03:02:53.495Z,32.50
2018-03-11T03:03:53.492Z,34.10
2018-03-11T03:04:53.515Z,35.50
2018-03-11T03:05:53.542Z,36.40
2018-03-11T03:06:53.570Z,34.30
2018-03-11T03:07:53.563Z,34.40
2018-03-11T03:08:53.584Z,34.20
2018-03-11T03:09:53.632Z,35.10
2018-03-11T03:10:53.615Z,35.70
2018-03-11T03:11:53.629Z,34.50
2018-03-11T03:12:53.652Z,35.80
2018-03-11T03:13:53.667Z,36.70
2018-03-11T03:14:53.692Z,35.80
2018-03-11T03:15:53.698Z,36.30
2018-03-11T03:16:53.750Z,37.50
2018-03-11T03:17:53.741Z,35.20
2018-03-11T03:18:53.752Z,38.30
2018-03-11T03:19:53.796Z,35.30
2018-03-11T03:20:53.789Z,38.10
2018-03-11T03:21:53.883Z,36.60
2018-03-11T03:22:53.826Z,40.60
2018-03-11T03:23:53.843Z,36.60
2018-03-11T03:24:53.864Z,38.80
2018-03-11T03:25:53.889Z,37.90
2018-03-11T03:26:53.894Z,39.80
2018-03-11T03:27:53.922Z,37.00
2018-03-11T03:28:53.930Z,37.80
2018-03-11T03:29:53.985Z,38.30
2018-03-11T03:30:54.027Z,37.40
2018-03-11T03:31:53.984Z,36.20
2018-03-11T03:32:54.002Z,35.00
2018-03-11T03:33:54.046Z,37.00
2018-03-11T03:34:54.071Z,35.70
2018-03-11T03:35:54.053Z,35.00
2018-03-11T03:36:54.077Z,37.30
2018-03-11T03:37:54.087Z,33.40
2018-03-11T03:38:54.114Z,37.80
2018-03-11T03:39:54.120Z,37.20
2018-03-11T03:40:54.173Z,38.00
2018-03-11T03:41:54.176Z,39.10
2018-03-11T03:42:54.174Z,36.20
2018-03-11T03:43:54.199Z,37.90
2018-03-11T03:44:54.271Z,38.70
2018-03-11T03:45:54.228Z,39.70
2018-03-11T03:46:54.247Z,36.50
2018-03-11T03:47:54.289Z,39.70
2018-03-11T03:48:54.288Z,40.80
2018-03-11T03:49:54.323Z,43.80
2018-03-11T03:50:54.343Z,41.50
2018-03-11T03:51:54.352Z,40.80
2018-03-11T03:52:54.353Z,41.20
2018-03-11T03:53:54.367Z,46.70
2018-03-11T03:54:54.396Z,47.60
2018-03-11T03:55:54.415Z,42.70
2018-03-11T03:56:54.422Z,46.50
2018-03-11T03:57:54.439Z,46.00
2018-03-11T03:58:54.455Z,46.90
2018-03-11T03:59:54.472Z,45.30
2018-03-11T04:00:54.488Z,46.00
2018-03-11T04:01:54.508Z,46.00
2018-03-11T04:02:54.541Z,48.30
2018-03-11T04:03:54.545Z,47.60
2018-03-11T04:04:54.558Z,51.30
2018-03-11T04:05:54.582Z,51.70
2018-03-11T04:06:54.601Z,48.50
2018-03-11T04:07:54.633Z,48.80
2018-03-11T04:08:54.633Z,46.00
2018-03-11T04:09:54.647Z,51.20
2018-03-11T04:10:54.665Z,52.60
2018-03-11T04:11:54.679Z,52.10
2018-03-11T04:12:54.774Z,56.30
2018-03-11T04:13:54.714Z,55.10
2018-03-11T04:14:54.735Z,49.00
2018-03-11T04:15:54.756Z,52.20
2018-03-11T04:16:54.765Z,51.60
2018-03-11T04:17:54.799Z,48.70
2018-03-11T04:18:54.826Z,50.20
2018-03-11T04:19:54.823Z,52.60
2018-03-11T04:20:54.836Z,53.80
2018-03-11T04:21:54.852Z,57.20
2018-03-11T04:22:54.870Z,54.10
2018-03-11T04:23:54.896Z,55.50
2018-03-11T04:24:54.914Z,50.70
2018-03-11T04:25:54.938Z,54.40
2018-03-11T04:26:54.934Z,57.30
2018-03-11T04:27:54.956Z,56.80
2018-03-11T04:28:54.987Z,53.70
2018-03-11T04:29:55.007Z,53.50
2018-03-11T04:30:55.004Z,55.80
2018-03-11T04:31:55.027Z,53.80
2018-03-11T04:32:55.047Z,56.00
2018-03-11T04:33:55.061Z,59.30
2018-03-11T04:34:55.076Z,57.50
2018-03-11T04:35:55.104Z,61.30
2018-03-11T04:36:55.112Z,57.90
2018-03-11T04:37:55.121Z,57.10
2018-03-11T04:38:55.143Z,55.90
2018-03-11T04:39:55.167Z,49.20
2018-03-11T04:40:55.174Z,54.50
2018-03-11T04:41:55.202Z,57.50
2018-03-11T04:42:55.227Z,60.90
2018-03-11T04:43:55.240Z,59.30
2018-03-11T04:44:55.243Z,56.60
2018-03-11T04:45:55.263Z,57.60
2018-03-11T04:46:55.293Z,68.20
2018-03-11T04:47:55.296Z,64.80
2018-03-11T04:48:55.312Z,60.60
2018-03-11T04:49:55.329Z,62.40
2018-03-11T04:50:55.348Z,60.50
2018-03-11T04:51:55.376Z,64.30
2018-03-11T04:52:55.384Z,58.80
2018-03-11T04:53:55.431Z,64.90
2018-03-11T04:54:55.437Z,64.60
2018-03-11T04:55:55.464Z,67.60
2018-03-11T04:56:55.517Z,59.70
2018-03-11T04:57:55.478Z,62.10
2018-03-11T04:58:55.483Z,59.00
2018-03-11T04:59:55.498Z,56.60
2018-03-11T05:00:55.518Z,62.20
2018-03-11T05:01:55.537Z,63.10
2018-03-11T05:02:55.547Z,60.70
2018-03-11T05:03:55.566Z,60.50
2018-03-11T05:04:55.584Z,60.60
2018-03-11T05:05:55.630Z,61.50
2018-03-11T05:06:55.615Z,61.90
2018-03-11T05:07:55.642Z,62.10
2018-03-11T05:08:55.658Z,62.60
2018-03-11T05:09:55.667Z,62.10
2018-03-11T05:10:55.683Z,60.30
2018-03-11T05:11:55.710Z,58.50
2018-03-11T05:12:55.726Z,62.90
2018-03-11T05:13:55.733Z,54.10
2018-03-11T05:14:55.756Z,51.00
2018-03-11T05:15:55.765Z,55.20
2018-03-11T05:16:55.786Z,53.70
2018-03-11T05:17:55.821Z,55.20
2018-03-11T05:18:55.820Z,51.00
2018-03-11T05:19:55.835Z,56.40
2018-03-11T05:20:55.856Z,55.90
2018-03-11T05:21:55.870Z,54.70
2018-03-11T05:22:55.903Z,55.50
2018-03-11T05:23:55.906Z,55.70
2018-03-11T05:24:55.936Z,48.30
2018-03-11T05:25:55.950Z,46.50
2018-03-11T05:26:55.954Z,44.70
2018-03-11T05:27:55.973Z,48.20
2018-03-11T05:28:55.987Z,44.30
2018-03-11T05:29:56.004Z,45.70
2018-03-11T05:30:56.019Z,44.80
2018-03-11T05:31:56.050Z,43.80
2018-03-11T05:32:56.047Z,42.20
2018-03-11T05:33:56.064Z,49.40
2018-03-11T05:34:56.133Z,44.60
2018-03-11T05:35:56.100Z,45.30
2018-03-11T05:36:56.116Z,46.60
2018-03-11T05:37:56.130Z,47.30
2018-03-11T05:38:56.165Z,43.70
2018-03-11T05:39:56.166Z,43.60
2018-03-11T05:40:56.184Z,44.90
2018-03-11T05:41:56.198Z,46.60
2018-03-11T05:42:56.221Z,42.80
2018-03-11T05:43:56.228Z,47.00
2018-03-11T05:44:56.252Z,44.00
2018-03-11T05:45:56.269Z,42.50
2018-03-11T05:46:56.292Z,42.80
2018-03-11T05:47:56.303Z,43.70
2018-03-11T05:48:56.305Z,49.30
2018-03-11T05:49:56.321Z,45.00
2018-03-11T05:50:56.337Z,45.40
2018-03-11T05:51:56.392Z,42.90
2018-03-11T05:52:56.383Z,42.50
2018-03-11T05:53:56.403Z,45.50
2018-03-11T05:54:56.404Z,45.80
2018-03-11T05:55:56.429Z,46.30
2018-03-11T05:56:56.465Z,43.30
2018-03-11T05:57:56.469Z,43.00
2018-03-11T05:58:56.502Z,44.90
2018-03-11T05:59:56.499Z,41.50
2018-03-11T06:00:56.501Z,40.10
2018-03-11T06:01:56.528Z,37.40
2018-03-11T06:02:56.549Z,34.90
2018-03-11T06:03:56.567Z,43.80
2018-03-11T06:04:56.561Z,44.10
2018-03-11T06:05:56.579Z,48.50
2018-03-11T06:06:56.604Z,46.30
2018-03-11T06:07:56.627Z,42.90
2018-03-11T06:08:56.630Z,40.60
2018-03-11T06:09:56.660Z,39.30
2018-03-11T06:10:56.678Z,43.20
2018-03-11T06:11:56.702Z,40.90
2018-03-11T06:12:56.693Z,41.70
2018-03-11T06:13:56.709Z,35.90
2018-03-11T06:14:56.730Z,39.30
2018-03-11T06:15:56.742Z,40.40
2018-03-11T06:16:56.761Z,40.50
2018-03-11T06:17:56.777Z,39.90
2018-03-11T06:18:56.801Z,38.20
2018-03-11T06:19:56.808Z,36.90
2018-03-11T06:20:56.845Z,33.80
2018-03-11T06:21:56.889Z,36.60
2018-03-11T06:22:56.880Z,39.10
2018-03-11T06:23:56.871Z,35.70
2018-03-11T06:24:56.894Z,33.90
2018-03-11T06:25:56.904Z,34.90
2018-03-11T06:26:56.919Z,30.70
2018-03-11T06:27:56.935Z,32.40
2018-03-11T06:28:56.974Z,31.90
2018-03-11T06:29:56.973Z,30.60
2018-03-11T06:30:57.011Z,31.30
2018-03-11T06:31:57.014Z,30.30
2018-03-11T06:32:57.024Z,28.30
2018-03-11T06:33:57.040Z,32.60
2018-03-11T06:34:57.059Z,27.30
2018-03-11T06:35:57.080Z,27.50
2018-03-11T06:36:57.107Z,26.60
2018-03-11T06:37:57.120Z,30.00
2018-03-11T06:38:57.165Z,29.50
2018-03-11T06:39:57.158Z,27.60
2018-03-11T06:40:57.186Z,30.60
2018-03-11T06:41:57.214Z,32.20
2018-03-11T06:42:57.203Z,33.80
2018-03-11T06:43:57.225Z,28.70
2018-03-11T06:44:57.261Z,28.90
2018-03-11T06:45:57.264Z,29.90
2018-03-11T06:46:57.275Z,30.00
2018-03-11T06:47:57.311Z,36.40
2018-03-11T06:48:57.308Z,30.00
2018-03-11T06:49:57.334Z,37.20
2018-03-11T06:50:57.352Z,34.90
2018-03-11T06:51:57.366Z,35.60
2018-03-11T06:52:57.380Z,33.60
2018-03-11T06:53:57.403Z,41.10
2018-03-11T06:54:57.423Z,37.80
2018-03-11T06:55:57.434Z,36.80
2018-03-11T06:56:57.474Z,38.40
2018-03-11T06:57:57.473Z,51.40
2018-03-11T06:58:57.511Z,45.70
2018-03-11T06:59:57.517Z,44.50
2018-03-11T07:00:57.603Z,42.20
2018-03-11T07:01:57.581Z,43.60
2018-03-11T07:02:57.584Z,42.40
2018-03-11T07:03:57.588Z,39.30
2018-03-11T07:04:57.606Z,39.20
2018-03-11T07:05:57.628Z,39.90
2018-03-11T07:06:57.666Z,40.20
2018-03-11T07:07:57.661Z,39.50
2018-03-11T07:08:57.681Z,38.80
2018-03-11T07:09:57.702Z,37.60
2018-03-11T07:10:57.729Z,39.00
2018-03-11T07:11:57.753Z,37.30
2018-03-11T07:12:57.754Z,37.10
2018-03-11T07:13:57.794Z,36.50
2018-03-11T07:14:57.788Z,36.60
2018-03-11T07:15:57.816Z,36.30
2018-03-11T07:16:57.836Z,34.60
2018-03-11T07:17:57.929Z,36.60
2018-03-11T07:18:57.918Z,35.60
2018-03-11T07:19:57.906Z,35.10
2018-03-11T07:20:57.928Z,33.80
2018-03-11T07:21:58.004Z,35.40
2018-03-11T07:22:57.968Z,34.20
2018-03-11T07:23:57.994Z,35.00
2018-03-11T07:24:57.986Z,35.20
2018-03-11T07:25:58.157Z,33.20
2018-03-11T07:26:58.054Z,33.90
2018-03-11T07:27:58.045Z,35.60
2018-03-11T07:28:58.074Z,32.30
2018-03-11T07:29:58.094Z,34.90
2018-03-11T07:30:58.352Z,32.90
2018-03-11T07:31:58.123Z,33.80
2018-03-11T07:32:58.139Z,33.50
2018-03-11T07:33:58.164Z,33.00
2018-03-11T07:34:58.184Z,33.90
2018-03-11T07:35:58.264Z,33.30
2018-03-11T07:36:58.272Z,35.30
2018-03-11T07:37:58.235Z,33.50
2018-03-11T07:38:58.254Z,31.50
2018-03-11T07:39:58.341Z,34.30
2018-03-11T07:40:58.288Z,32.90
2018-03-11T07:41:58.328Z,34.20
2018-03-11T07:42:58.340Z,33.10
2018-03-11T07:43:58.346Z,32.20
2018-03-11T07:44:58.384Z,30.70
2018-03-11T07:45:58.387Z,31.50
2018-03-11T07:46:58.410Z,33.70
2018-03-11T07:47:58.424Z,27.70
2018-03-11T07:48:58.448Z,29.70
2018-03-11T07:49:58.455Z,26.90
2018-03-11T07:50:58.474Z,29.30
2018-03-11T07:51:58.500Z,27.60
2018-03-11T07:52:58.526Z,28.10
2018-03-11T07:53:58.579Z,28.40
2018-03-11T07:54:58.560Z,27.80
2018-03-11T07:55:58.609Z,24.80
2018-03-11T07:56:58.594Z,27.20
2018-03-11T07:57:58.613Z,24.40
2018-03-11T07:58:58.638Z,26.40
2018-03-11T07:59:58.653Z,25.10
2018-03-11T08:00:58.681Z,22.80
2018-03-11T08:01:58.690Z,23.90
2018-03-11T08:02:58.724Z,24.00
2018-03-11T08:03:58.763Z,24.80
2018-03-11T08:04:58.766Z,22.30
2018-03-11T08:05:58.782Z,23.00
2018-03-11T08:06:58.812Z,22.70
2018-03-11T08:07:58.822Z,22.10
2018-03-11T08:08:58.841Z,22.60
2018-03-11T08:09:58.861Z,23.40
2018-03-11T08:10:58.908Z,23.00
2018-03-11T08:11:58.912Z,23.20
2018-03-11T08:12:58.940Z,23.20
2018-03-11T08:13:58.974Z,22.50
2018-03-11T08:14:58.980Z,21.00
2018-03-11T08:15:58.993Z,21.40
2018-03-11T08:16:59.046Z,21.10
2018-03-11T08:17:59.061Z,21.60
2018-03-11T08:18:59.066Z,21.10
2018-03-11T08:19:59.101Z,21.40
2018-03-11T08:20:59.110Z,21.70
2018-03-11T08:21:59.134Z,21.80
2018-03-11T08:22:59.162Z,22.20
2018-03-11T08:23:59.177Z,22.00
2018-03-11T08:24:59.216Z,20.20
2018-03-11T08:25:59.236Z,19.50
2018-03-11T08:26:59.257Z,20.50
2018-03-11T08:27:59.301Z,20.70
2018-03-11T08:28:59.293Z,19.10
2018-03-11T08:29:59.375Z,20.60
2018-03-11T08:30:59.362Z,19.60
2018-03-11T08:31:59.366Z,18.80
2018-03-11T08:32:59.392Z,18.30
2018-03-11T08:33:59.407Z,18.80
2018-03-11T08:34:59.432Z,18.10
2018-03-11T08:35:59.468Z,18.10
2018-03-11T08:36:59.476Z,18.90
2018-03-11T08:37:59.567Z,18.50
2018-03-11T08:38:59.548Z,17.70
2018-03-11T08:39:59.546Z,18.70
2018-03-11T08:40:59.592Z,18.40
2018-03-11T08:41:59.591Z,16.20
2018-03-11T08:42:59.611Z,15.90
2018-03-11T08:43:59.645Z,16.30
2018-03-11T08:44:59.719Z,15.90
2018-03-11T08:45:59.681Z,15.60
2018-03-11T08:46:59.719Z,18.20
2018-03-11T08:47:59.727Z,16.70
2018-03-11T08:48:59.750Z,17.10
2018-03-11T08:49:59.792Z,17.30
2018-03-11T08:50:59.793Z,16.50
2018-03-11T08:51:59.815Z,15.80
2018-03-11T08:52:59.837Z,15.30
2018-03-11T08:53:59.862Z,14.40
2018-03-11T08:54:59.873Z,14.50
2018-03-11T08:55:59.899Z,14.30
2018-03-11T08:56:59.915Z,13.30
2018-03-11T08:57:59.942Z,14.10
2018-03-11T08:58:59.978Z,15.00
2018-03-11T08:59:59.989Z,13.50
2018-03-11T09:01:00.011Z,13.30
2018-03-11T09:02:00.045Z,14.40
2018-03-11T09:03:00.049Z,14.10
2018-03-11T09:04:00.076Z,14.30
2018-03-11T09:05:00.160Z,16.40
2018-03-11T09:06:00.115Z,15.00
2018-03-11T09:07:00.127Z,14.40
2018-03-11T09:08:00.159Z,14.50
2018-03-11T09:09:00.174Z,14.70
2018-03-11T09:10:00.221Z,15.00
2018-03-11T09:11:00.218Z,14.00
2018-03-11T09:12:00.264Z,14.30
2018-03-11T09:13:00.317Z,14.60
2018-03-11T09:14:00.296Z,14.30
2018-03-11T09:15:00.318Z,14.20
2018-03-11T09:16:00.319Z,13.40
2018-03-11T09:17:00.348Z,13.70
2018-03-11T09:18:00.382Z,13.00
2018-03-11T09:19:00.390Z,13.90
2018-03-11T09:20:00.409Z,13.40
2018-03-11T09:21:00.430Z,13.80
2018-03-11T09:22:00.452Z,12.80
2018-03-11T09:23:00.471Z,12.90
2018-03-11T09:24:00.519Z,13.20
2018-03-11T09:25:00.539Z,12.20
2018-03-11T09:26:00.537Z,12.50
2018-03-11T09:27:00.562Z,13.10
2018-03-11T09:28:00.579Z,13.40
2018-03-11T09:29:00.617Z,12.90
2018-03-11T09:30:00.624Z,12.10
2018-03-11T09:31:00.639Z,13.20
2018-03-11T09:32:00.672Z,13.10
2018-03-11T09:33:00.765Z,12.70
2018-03-11T09:34:00.702Z,14.80
2018-03-11T09:35:00.739Z,12.50
2018-03-11T09:36:00.778Z,12.90
2018-03-11T09:37:00.769Z,11.60
2018-03-11T09:38:00.786Z,11.30
2018-03-11T09:39:00.806Z,12.30
2018-03-11T09:40:00.830Z,13.00
2018-03-11T09:41:00.864Z,13.30
2018-03-11T09:42:00.882Z,15.20
2018-03-11T09:43:00.920Z,14.50
2018-03-11T09:44:00.921Z,13.20
2018-03-11T09:45:00.923Z,13.70
2018-03-11T09:46:00.952Z,12.70
2018-03-11T09:47:00.987Z,13.10
2018-03-11T09:48:01.013Z,12.00
2018-03-11T09:49:01.020Z,12.10
2018-03-11T09:50:01.056Z,14.40
2018-03-11T09:51:01.074Z,16.40
2018-03-11T09:52:01.079Z,14.10
2018-03-11T09:53:01.091Z,12.90
2018-03-11T09:54:01.137Z,13.40
2018-03-11T09:55:01.143Z,14.60
2018-03-11T09:56:01.149Z,14.00
2018-03-11T09:57:01.177Z,12.80
2018-03-11T09:58:01.188Z,12.40
2018-03-11T09:59:01.227Z,12.30
2018-03-11T10:00:01.231Z,13.30
2018-03-11T10:01:01.254Z,13.50
2018-03-11T10:02:01.273Z,12.40
2018-03-11T10:03:01.289Z,13.90
2018-03-11T10:04:01.308Z,13.60
2018-03-11T10:05:01.334Z,13.50
2018-03-11T10:06:01.358Z,13.70
2018-03-11T10:07:01.377Z,12.50
2018-03-11T10:08:01.386Z,14.70
2018-03-11T10:09:01.432Z,12.80
2018-03-11T10:10:01.428Z,13.80
2018-03-11T10:11:01.446Z,12.60
2018-03-11T10:12:01.474Z,13.10
2018-03-11T10:13:01.496Z,13.00
2018-03-11T10:14:01.526Z,13.10
2018-03-11T10:15:01.531Z,13.40
2018-03-11T10:16:01.580Z,13.40
2018-03-11T10:17:01.572Z,13.40
2018-03-11T10:18:01.584Z,12.70
2018-03-11T10:19:01.620Z,13.30
2018-03-11T10:20:01.650Z,15.60
2018-03-11T10:21:01.654Z,17.60
2018-03-11T10:22:01.684Z,16.70
2018-03-11T10:23:01.688Z,14.30
2018-03-11T10:24:01.711Z,15.10
2018-03-11T10:25:01.749Z,13.00
2018-03-11T10:26:01.749Z,12.40
2018-03-11T10:27:01.768Z,16.50
2018-03-11T10:28:01.800Z,12.90
2018-03-11T10:29:01.821Z,13.90
2018-03-11T10:30:01.840Z,12.60
2018-03-11T10:31:01.858Z,12.60
2018-03-11T10:32:01.893Z,13.00
2018-03-11T10:33:01.896Z,12.20
2018-03-11T10:34:01.907Z,13.70
2018-03-11T10:35:01.929Z,13.30
2018-03-11T10:36:01.961Z,12.00
2018-03-11T10:37:01.981Z,15.40
2018-03-11T10:38:01.991Z,12.30
2018-03-11T10:39:02.014Z,13.50
2018-03-11T10:40:02.032Z,19.60
2018-03-11T10:41:02.101Z,12.80
2018-03-11T10:42:02.079Z,13.30
2018-03-11T10:43:02.091Z,12.00
2018-03-11T10:44:02.116Z,12.10
2018-03-11T10:45:02.139Z,14.20
2018-03-11T10:46:02.154Z,12.20
2018-03-11T10:47:02.202Z,12.60
2018-03-11T10:48:02.196Z,10.40
2018-03-11T10:49:02.245Z,12.30
2018-03-11T10:50:02.235Z,9.80
2018-03-11T10:51:02.279Z,10.50
2018-03-11T10:52:02.286Z,12.10
2018-03-11T10:53:02.301Z,10.70
2018-03-11T10:54:02.326Z,10.30
2018-03-11T10:55:02.374Z,10.60
2018-03-11T10:56:02.377Z,11.50
2018-03-11T10:57:02.385Z,10.50
2018-03-11T10:58:02.414Z,9.60
2018-03-11T10:59:02.427Z,10.00
2018-03-11T11:00:02.483Z,11.60
2018-03-11T11:01:02.478Z,10.90
2018-03-11T11:02:02.493Z,8.90
2018-03-11T11:03:02.511Z,12.00
2018-03-11T11:04:02.542Z,8.70
2018-03-11T11:05:02.561Z,9.10
2018-03-11T11:06:02.579Z,11.30
2018-03-11T11:07:02.603Z,13.00
2018-03-11T11:08:02.619Z,11.70
2018-03-11T11:09:02.650Z,15.00
2018-03-11T11:10:02.670Z,11.40
2018-03-11T11:11:02.681Z,13.40
2018-03-11T11:12:02.696Z,12.50
2018-03-11T11:13:02.754Z,16.00
2018-03-11T11:14:02.748Z,28.50
2018-03-11T11:15:02.763Z,9.00
2018-03-11T11:16:02.791Z,8.30
2018-03-11T11:17:02.804Z,9.50
2018-03-11T11:18:02.833Z,8.40
2018-03-11T11:19:02.848Z,7.90
2018-03-11T11:20:02.873Z,9.10
2018-03-11T11:21:02.900Z,8.60
2018-03-11T11:22:02.912Z,8.00
2018-03-11T11:23:02.933Z,9.00
2018-03-11T11:24:02.978Z,8.00
2018-03-11T11:25:02.976Z,8.00
2018-03-11T11:26:02.995Z,9.30
2018-03-11T11:27:03.028Z,9.00
2018-03-11T11:28:03.033Z,8.90
2018-03-11T11:29:03.055Z,8.50
2018-03-11T11:30:03.079Z,7.30
2018-03-11T11:31:03.115Z,8.40
2018-03-11T11:32:03.123Z,7.70
2018-03-11T11:33:03.138Z,7.30
2018-03-11T11:34:03.161Z,8.70
2018-03-11T11:35:03.189Z,8.00
2018-03-11T11:36:03.237Z,7.80
2018-03-11T11:37:03.226Z,8.50
2018-03-11T11:38:03.248Z,8.20
2018-03-11T11:39:03.280Z,8.10
2018-03-11T11:40:03.286Z,7.90
2018-03-11T11:41:03.342Z,7.70
2018-03-11T11:42:03.337Z,8.50
2018-03-11T11:43:03.349Z,9.10
2018-03-11T11:44:03.379Z,10.00
2018-03-11T11:45:03.403Z,10.30
2018-03-11T11:46:03.459Z,21.20
2018-03-11T11:47:03.444Z,13.10
2018-03-11T11:48:03.448Z,11.10
2018-03-11T11:49:03.512Z,18.40
2018-03-11T11:50:03.496Z,14.90
2018-03-11T11:51:03.514Z,11.10
2018-03-11T11:52:03.532Z,10.20
2018-03-11T11:53:03.574Z,9.70
2018-03-11T11:54:03.594Z,10.00
2018-03-11T11:55:03.612Z,13.90
2018-03-11T11:56:03.620Z,14.00
2018-03-11T11:57:03.656Z,12.50
2018-03-11T11:58:03.687Z,19.30
2018-03-11T11:59:03.701Z,9.80
2018-03-11T12:00:03.701Z,8.30
2018-03-11T12:01:03.732Z,9.50
2018-03-11T12:02:03.741Z,9.40
2018-03-11T12:03:03.797Z,6.40
2018-03-11T12:04:03.792Z,6.20
2018-03-11T12:05:03.809Z,11.30
2018-03-11T12:06:03.839Z,12.90
2018-03-11T12:07:03.919Z,13.80
2018-03-11T12:08:03.897Z,8.10
2018-03-11T12:09:03.891Z,8.40
2018-03-11T12:10:03.908Z,10.30
2018-03-11T12:11:03.930Z,8.10
2018-03-11T12:12:03.994Z,9.90
2018-03-11T12:13:03.992Z,14.50
2018-03-11T12:14:03.992Z,13.40
2018-03-11T12:15:04.010Z,9.40
2018-03-11T12:16:04.031Z,8.90
2018-03-11T12:17:04.062Z,15.20
2018-03-11T12:18:04.072Z,16.30
2018-03-11T12:19:04.092Z,12.60
2018-03-11T12:20:04.128Z,12.60
2018-03-11T12:21:04.128Z,11.10
2018-03-11T12:22:04.184Z,11.00
2018-03-11T12:23:04.168Z,14.30
2018-03-11T12:24:04.193Z,14.90
2018-03-11T12:25:04.230Z,18.70
2018-03-11T12:26:04.228Z,12.10
2018-03-11T12:27:04.265Z,16.30
2018-03-11T12:28:04.283Z,15.20
2018-03-11T12:29:04.293Z,24.60
2018-03-11T12:30:04.320Z,40.40
2018-03-11T12:31:04.358Z,25.90
2018-03-11T12:32:04.354Z,84.40
2018-03-11T12:33:04.380Z,54.30
2018-03-11T12:34:04.408Z,32.40
2018-03-11T12:35:04.430Z,31.00
2018-03-11T12:36:04.437Z,53.90
2018-03-11T12:37:04.474Z,24.40
2018-03-11T12:38:04.484Z,18.60
2018-03-11T12:39:04.500Z,16.50
2018-03-11T12:40:04.527Z,17.20
2018-03-11T12:41:04.604Z,53.00
2018-03-11T12:42:04.567Z,32.60
2018-03-11T12:43:04.588Z,28.00
2018-03-11T12:44:04.603Z,34.80
2018-03-11T12:45:04.626Z,29.60
2018-03-11T12:46:04.646Z,21.90
2018-03-11T12:47:04.727Z,15.10
2018-03-11T12:48:04.710Z,11.00
2018-03-11T12:49:04.711Z,6.60
2018-03-11T12:50:04.729Z,6.00
2018-03-11T12:51:04.747Z,6.40
2018-03-11T12:52:04.774Z,6.10
2018-03-11T12:53:04.808Z,6.50
2018-03-11T12:54:04.815Z,7.70
2018-03-11T12:55:04.853Z,6.70